Terminal Aerodrome Forecast
Issued by NWS Cleveland, OH

Home | Current Version | Previous Version | Graphics & Text | Print | Product List | Glossary On
Versions: 1 2 3 4 5 6 7 8 9 10 11 12 13 14 15 16 17 18 19 20 21 22
000
FTUS41 KCLE 281100
TAFTOL
TAF
KTOL 281139Z 2812/2912 33008KT P6SM BKN018 OVC025
     FM281500 34014KT P6SM BKN025
     FM281700 34014G22KT P6SM BKN035
     FM290100 31004KT P6SM SCT040
     FM290500 27005KT P6SM BKN080=

USA.gov is the U.S. government's official web portal to all federal, state and local government web resources and services.